sensor_id;sensor_type;location;lat;lon;timestamp;P1;durP1;ratioP1;P2;durP2;ratioP2
65463;SDS011;52063;45.110;9.870;2023-05-10T00:01:53;2.00;;;1.90;;
65463;SDS011;52063;45.110;9.870;2023-05-10T00:04:19;2.63;;;2.43;;
65463;SDS011;52063;45.110;9.870;2023-05-10T00:06:45;2.22;;;2.10;;
65463;SDS011;52063;45.110;9.870;2023-05-10T00:09:10;2.30;;;2.10;;
65463;SDS011;52063;45.110;9.870;2023-05-10T00:11:36;2.77;;;2.20;;
65463;SDS011;52063;45.110;9.870;2023-05-10T00:14:01;2.08;;;1.98;;
65463;SDS011;52063;45.110;9.870;2023-05-10T00:16:27;1.80;;;1.70;;
65463;SDS011;52063;45.110;9.870;2023-05-10T00:18:52;2.30;;;1.97;;
65463;SDS011;52063;45.110;9.870;2023-05-10T00:21:17;2.10;;;1.80;;
65463;SDS011;52063;45.110;9.870;2023-05-10T00:23:43;2.17;;;1.97;;
65463;SDS011;52063;45.110;9.870;2023-05-10T00:26:08;2.10;;;1.97;;
65463;SDS011;52063;45.110;9.870;2023-05-10T00:28:36;2.10;;;2.00;;
65463;SDS011;52063;45.110;9.870;2023-05-10T00:31:02;2.20;;;2.10;;
65463;SDS011;52063;45.110;9.870;2023-05-10T00:33:28;2.40;;;2.20;;
65463;SDS011;52063;45.110;9.870;2023-05-10T00:35:54;2.15;;;1.95;;
65463;SDS011;52063;45.110;9.870;2023-05-10T00:38:19;2.03;;;1.93;;
65463;SDS011;52063;45.110;9.870;2023-05-10T00:40:45;2.77;;;2.00;;
65463;SDS011;52063;45.110;9.870;2023-05-10T00:43:18;1.90;;;1.80;;
65463;SDS011;52063;45.110;9.870;2023-05-10T00:45:45;2.53;;;2.33;;
65463;SDS011;52063;45.110;9.870;2023-05-10T00:48:11;2.03;;;1.93;;
65463;SDS011;52063;45.110;9.870;2023-05-10T00:50:37;2.05;;;1.90;;
65463;SDS011;52063;45.110;9.870;2023-05-10T00:53:02;1.80;;;1.70;;
65463;SDS011;52063;45.110;9.870;2023-05-10T00:55:28;2.30;;;2.10;;
65463;SDS011;52063;45.110;9.870;2023-05-10T00:57:53;2.17;;;1.98;;
65463;SDS011;52063;45.110;9.870;2023-05-10T01:00:19;2.00;;;1.90;;
65463;SDS011;52063;45.110;9.870;2023-05-10T01:02:45;2.50;;;1.83;;
65463;SDS011;52063;45.110;9.870;2023-05-10T01:05:11;2.00;;;1.90;;
65463;SDS011;52063;45.110;9.870;2023-05-10T01:07:36;2.00;;;1.90;;
65463;SDS011;52063;45.110;9.870;2023-05-10T01:10:02;2.73;;;1.93;;
65463;SDS011;52063;45.110;9.870;2023-05-10T01:12:27;2.25;;;2.08;;
65463;SDS011;52063;45.110;9.870;2023-05-10T01:14:53;2.20;;;2.10;;
65463;SDS011;52063;45.110;9.870;2023-05-10T01:17:19;2.78;;;2.03;;
65463;SDS011;52063;45.110;9.870;2023-05-10T01:19:46;1.90;;;1.70;;
65463;SDS011;52063;45.110;9.870;2023-05-10T01:31:03;2.00;;;1.80;;
65463;SDS011;52063;45.110;9.870;2023-05-10T01:33:48;1.98;;;1.88;;
65463;SDS011;52063;45.110;9.870;2023-05-10T01:36:25;2.10;;;2.00;;
65463;SDS011;52063;45.110;9.870;2023-05-10T01:38:58;2.05;;;1.85;;
65463;SDS011;52063;45.110;9.870;2023-05-10T01:42:16;2.03;;;1.92;;
65463;SDS011;52063;45.110;9.870;2023-05-10T01:44:35;2.07;;;1.87;;
65463;SDS011;52063;45.110;9.870;2023-05-10T01:47:11;2.08;;;1.60;;
65463;SDS011;52063;45.110;9.870;2023-05-10T01:49:41;2.08;;;1.98;;
65463;SDS011;52063;45.110;9.870;2023-05-10T01:52:10;2.28;;;2.08;;
65463;SDS011;52063;45.110;9.870;2023-05-10T01:54:52;2.13;;;1.65;;
65463;SDS011;52063;45.110;9.870;2023-05-10T01:57:20;2.50;;;1.63;;
65463;SDS011;52063;45.110;9.870;2023-05-10T01:59:48;1.60;;;1.50;;
65463;SDS011;52063;45.110;9.870;2023-05-10T02:02:15;2.65;;;1.92;;
65463;SDS011;52063;45.110;9.870;2023-05-10T02:04:43;2.03;;;1.92;;
65463;SDS011;52063;45.110;9.870;2023-05-10T02:07:10;3.65;;;2.03;;
65463;SDS011;52063;45.110;9.870;2023-05-10T02:09:35;2.10;;;1.90;;
65463;SDS011;52063;45.110;9.870;2023-05-10T02:12:02;1.77;;;1.65;;
65463;SDS011;52063;45.110;9.870;2023-05-10T02:14:34;1.75;;;1.65;;
65463;SDS011;52063;45.110;9.870;2023-05-10T02:17:02;1.48;;;1.38;;
65463;SDS011;52063;45.110;9.870;2023-05-10T02:19:29;2.20;;;1.70;;
65463;SDS011;52063;45.110;9.870;2023-05-10T02:21:56;2.30;;;2.10;;
65463;SDS011;52063;45.110;9.870;2023-05-10T02:24:22;1.85;;;1.75;;
65463;SDS011;52063;45.110;9.870;2023-05-10T02:26:49;1.98;;;1.70;;
65463;SDS011;52063;45.110;9.870;2023-05-10T02:29:16;3.13;;;1.70;;
65463;SDS011;52063;45.110;9.870;2023-05-10T02:31:42;1.75;;;1.65;;
65463;SDS011;52063;45.110;9.870;2023-05-10T02:34:08;1.77;;;1.67;;
65463;SDS011;52063;45.110;9.870;2023-05-10T02:36:35;1.92;;;1.52;;
65463;SDS011;52063;45.110;9.870;2023-05-10T02:39:03;1.90;;;1.80;;
65463;SDS011;52063;45.110;9.870;2023-05-10T02:41:30;3.00;;;1.80;;
65463;SDS011;52063;45.110;9.870;2023-05-10T02:43:59;1.88;;;1.70;;
65463;SDS011;52063;45.110;9.870;2023-05-10T02:46:25;1.83;;;1.73;;
65463;SDS011;52063;45.110;9.870;2023-05-10T02:48:51;1.97;;;1.70;;
65463;SDS011;52063;45.110;9.870;2023-05-10T02:51:16;2.00;;;1.90;;
65463;SDS011;52063;45.110;9.870;2023-05-10T02:53:43;1.90;;;1.70;;
65463;SDS011;52063;45.110;9.870;2023-05-10T02:56:13;1.70;;;1.60;;
65463;SDS011;52063;45.110;9.870;2023-05-10T02:58:40;1.70;;;1.60;;
65463;SDS011;52063;45.110;9.870;2023-05-10T03:01:06;1.60;;;1.50;;
65463;SDS011;52063;45.110;9.870;2023-05-10T03:03:32;2.20;;;2.00;;
65463;SDS011;52063;45.110;9.870;2023-05-10T03:05:58;3.35;;;1.42;;
65463;SDS011;52063;45.110;9.870;2023-05-10T03:08:24;1.80;;;1.70;;
65463;SDS011;52063;45.110;9.870;2023-05-10T03:11:37;2.25;;;1.80;;
65463;SDS011;52063;45.110;9.870;2023-05-10T03:17:22;1.60;;;1.50;;
65463;SDS011;52063;45.110;9.870;2023-05-10T03:19:52;1.95;;;1.70;;
65463;SDS011;52063;45.110;9.870;2023-05-10T03:22:30;2.53;;;1.63;;
65463;SDS011;52063;45.110;9.870;2023-05-10T03:24:56;2.25;;;1.60;;
65463;SDS011;52063;45.110;9.870;2023-05-10T03:27:28;1.80;;;1.70;;
65463;SDS011;52063;45.110;9.870;2023-05-10T03:29:55;1.50;;;1.40;;
65463;SDS011;52063;45.110;9.870;2023-05-10T03:32:21;1.70;;;1.60;;
65463;SDS011;52063;45.110;9.870;2023-05-10T03:34:47;1.92;;;1.83;;
65463;SDS011;52063;45.110;9.870;2023-05-10T03:37:13;1.83;;;1.73;;
65463;SDS011;52063;45.110;9.870;2023-05-10T03:39:39;2.00;;;1.90;;
65463;SDS011;52063;45.110;9.870;2023-05-10T03:42:07;2.00;;;1.80;;
65463;SDS011;52063;45.110;9.870;2023-05-10T03:44:32;2.00;;;1.90;;
65463;SDS011;52063;45.110;9.870;2023-05-10T03:46:58;1.87;;;1.77;;
65463;SDS011;52063;45.110;9.870;2023-05-10T03:49:24;2.20;;;1.63;;
65463;SDS011;52063;45.110;9.870;2023-05-10T03:51:50;1.65;;;1.50;;
65463;SDS011;52063;45.110;9.870;2023-05-10T03:54:15;4.60;;;1.47;;
65463;SDS011;52063;45.110;9.870;2023-05-10T03:56:41;1.70;;;1.50;;
65463;SDS011;52063;45.110;9.870;2023-05-10T03:59:07;1.50;;;1.40;;
65463;SDS011;52063;45.110;9.870;2023-05-10T04:01:34;5.85;;;3.45;;
65463;SDS011;52063;45.110;9.870;2023-05-10T04:03:59;2.03;;;1.55;;
65463;SDS011;52063;45.110;9.870;2023-05-10T04:06:25;2.00;;;1.80;;
65463;SDS011;52063;45.110;9.870;2023-05-10T04:08:51;2.27;;;1.87;;
65463;SDS011;52063;45.110;9.870;2023-05-10T04:11:16;1.90;;;1.80;;
65463;SDS011;52063;45.110;9.870;2023-05-10T04:13:42;2.90;;;2.03;;
65463;SDS011;52063;45.110;9.870;2023-05-10T04:16:08;1.67;;;1.58;;
65463;SDS011;52063;45.110;9.870;2023-05-10T04:18:34;1.80;;;1.70;;
65463;SDS011;52063;45.110;9.870;2023-05-10T04:20:59;1.83;;;1.50;;
65463;SDS011;52063;45.110;9.870;2023-05-10T04:23:25;1.90;;;1.80;;
65463;SDS011;52063;45.110;9.870;2023-05-10T04:25:52;2.17;;;1.97;;
65463;SDS011;52063;45.110;9.870;2023-05-10T04:28:17;2.58;;;1.52;;
65463;SDS011;52063;45.110;9.870;2023-05-10T04:30:43;3.67;;;1.60;;
65463;SDS011;52063;45.110;9.870;2023-05-10T04:33:08;2.33;;;1.60;;
65463;SDS011;52063;45.110;9.870;2023-05-10T04:35:34;1.73;;;1.30;;
65463;SDS011;52063;45.110;9.870;2023-05-10T04:38:00;1.80;;;1.70;;
65463;SDS011;52063;45.110;9.870;2023-05-10T04:40:25;1.73;;;1.63;;
65463;SDS011;52063;45.110;9.870;2023-05-10T04:42:51;1.60;;;1.50;;
65463;SDS011;52063;45.110;9.870;2023-05-10T04:45:16;1.50;;;1.40;;
65463;SDS011;52063;45.110;9.870;2023-05-10T04:47:42;1.88;;;1.45;;
65463;SDS011;52063;45.110;9.870;2023-05-10T04:50:07;2.40;;;1.53;;
65463;SDS011;52063;45.110;9.870;2023-05-10T04:52:33;1.43;;;1.33;;
65463;SDS011;52063;45.110;9.870;2023-05-10T04:54:58;1.60;;;1.42;;
65463;SDS011;52063;45.110;9.870;2023-05-10T04:57:24;1.50;;;1.40;;
65463;SDS011;52063;45.110;9.870;2023-05-10T04:59:49;1.60;;;1.50;;
65463;SDS011;52063;45.110;9.870;2023-05-10T05:02:14;1.42;;;1.33;;
65463;SDS011;52063;45.110;9.870;2023-05-10T05:04:40;1.87;;;1.77;;
65463;SDS011;52063;45.110;9.870;2023-05-10T05:07:06;1.57;;;1.47;;
65463;SDS011;52063;45.110;9.870;2023-05-10T05:09:31;2.80;;;1.45;;
65463;SDS011;52063;45.110;9.870;2023-05-10T05:11:59;1.50;;;1.40;;
65463;SDS011;52063;45.110;9.870;2023-05-10T05:14:25;1.50;;;1.40;;
65463;SDS011;52063;45.110;9.870;2023-05-10T05:16:53;1.50;;;1.30;;
65463;SDS011;52063;45.110;9.870;2023-05-10T05:19:18;1.73;;;1.63;;
65463;SDS011;52063;45.110;9.870;2023-05-10T05:21:44;1.50;;;1.40;;
65463;SDS011;52063;45.110;9.870;2023-05-10T05:24:09;1.60;;;1.50;;
65463;SDS011;52063;45.110;9.870;2023-05-10T05:26:36;1.60;;;1.40;;
65463;SDS011;52063;45.110;9.870;2023-05-10T05:29:02;1.45;;;1.20;;
65463;SDS011;52063;45.110;9.870;2023-05-10T05:31:27;1.30;;;1.20;;
65463;SDS011;52063;45.110;9.870;2023-05-10T05:33:53;1.50;;;1.40;;
65463;SDS011;52063;45.110;9.870;2023-05-10T05:36:18;1.50;;;1.40;;
65463;SDS011;52063;45.110;9.870;2023-05-10T05:38:44;1.40;;;1.30;;
65463;SDS011;52063;45.110;9.870;2023-05-10T05:41:10;1.57;;;1.40;;
65463;SDS011;52063;45.110;9.870;2023-05-10T05:43:35;1.60;;;1.50;;
65463;SDS011;52063;45.110;9.870;2023-05-10T05:46:00;1.20;;;1.10;;
65463;SDS011;52063;45.110;9.870;2023-05-10T05:48:26;1.70;;;1.23;;
65463;SDS011;52063;45.110;9.870;2023-05-10T05:50:55;2.30;;;1.00;;
65463;SDS011;52063;45.110;9.870;2023-05-10T05:53:21;2.88;;;1.40;;
65463;SDS011;52063;45.110;9.870;2023-05-10T05:58:19;1.47;;;1.27;;
65463;SDS011;52063;45.110;9.870;2023-05-10T06:00:44;1.40;;;1.30;;
65463;SDS011;52063;45.110;9.870;2023-05-10T06:03:10;1.40;;;1.30;;
65463;SDS011;52063;45.110;9.870;2023-05-10T06:05:35;1.03;;;0.93;;
65463;SDS011;52063;45.110;9.870;2023-05-10T06:08:01;1.23;;;1.13;;
65463;SDS011;52063;45.110;9.870;2023-05-10T06:10:26;2.33;;;1.00;;
65463;SDS011;52063;45.110;9.870;2023-05-10T06:12:52;1.60;;;1.30;;
65463;SDS011;52063;45.110;9.870;2023-05-10T06:15:18;1.30;;;1.20;;
65463;SDS011;52063;45.110;9.870;2023-05-10T06:17:43;1.50;;;1.40;;
65463;SDS011;52063;45.110;9.870;2023-05-10T06:20:09;1.50;;;1.40;;
65463;SDS011;52063;45.110;9.870;2023-05-10T06:22:35;1.25;;;1.13;;
65463;SDS011;52063;45.110;9.870;2023-05-10T06:25:00;1.60;;;1.50;;
65463;SDS011;52063;45.110;9.870;2023-05-10T06:27:27;1.42;;;1.27;;
65463;SDS011;52063;45.110;9.870;2023-05-10T06:29:52;1.50;;;1.40;;
65463;SDS011;52063;45.110;9.870;2023-05-10T06:32:17;1.30;;;1.10;;
65463;SDS011;52063;45.110;9.870;2023-05-10T06:34:43;2.13;;;1.40;;
65463;SDS011;52063;45.110;9.870;2023-05-10T06:37:09;1.60;;;1.50;;
65463;SDS011;52063;45.110;9.870;2023-05-10T06:39:35;1.67;;;1.58;;
65463;SDS011;52063;45.110;9.870;2023-05-10T06:42:01;1.77;;;1.52;;
65463;SDS011;52063;45.110;9.870;2023-05-10T06:44:31;2.30;;;1.70;;
65463;SDS011;52063;45.110;9.870;2023-05-10T06:46:56;1.83;;;1.67;;
65463;SDS011;52063;45.110;9.870;2023-05-10T06:49:22;4.63;;;1.57;;
65463;SDS011;52063;45.110;9.870;2023-05-10T06:51:47;3.23;;;1.50;;
65463;SDS011;52063;45.110;9.870;2023-05-10T06:54:13;3.80;;;1.57;;
65463;SDS011;52063;45.110;9.870;2023-05-10T06:56:39;1.60;;;1.40;;
65463;SDS011;52063;45.110;9.870;2023-05-10T06:59:04;2.80;;;1.70;;
65463;SDS011;52063;45.110;9.870;2023-05-10T07:01:30;2.07;;;1.73;;
65463;SDS011;52063;45.110;9.870;2023-05-10T07:03:55;1.60;;;1.50;;
65463;SDS011;52063;45.110;9.870;2023-05-10T07:06:21;1.63;;;1.48;;
65463;SDS011;52063;45.110;9.870;2023-05-10T07:08:46;2.67;;;1.67;;
65463;SDS011;52063;45.110;9.870;2023-05-10T07:11:12;2.43;;;1.60;;
65463;SDS011;52063;45.110;9.870;2023-05-10T07:13:37;3.25;;;1.70;;
65463;SDS011;52063;45.110;9.870;2023-05-10T07:16:04;2.47;;;1.20;;
65463;SDS011;52063;45.110;9.870;2023-05-10T07:18:31;1.90;;;1.20;;
65463;SDS011;52063;45.110;9.870;2023-05-10T07:20:57;1.80;;;1.20;;
65463;SDS011;52063;45.110;9.870;2023-05-10T07:23:22;1.63;;;1.40;;
65463;SDS011;52063;45.110;9.870;2023-05-10T07:25:48;1.90;;;1.10;;
65463;SDS011;52063;45.110;9.870;2023-05-10T07:28:14;1.40;;;1.30;;
65463;SDS011;52063;45.110;9.870;2023-05-10T07:30:41;2.33;;;1.70;;
65463;SDS011;52063;45.110;9.870;2023-05-10T07:33:07;1.83;;;1.42;;
65463;SDS011;52063;45.110;9.870;2023-05-10T07:35:34;1.88;;;1.30;;
65463;SDS011;52063;45.110;9.870;2023-05-10T07:37:59;2.50;;;1.50;;
65463;SDS011;52063;45.110;9.870;2023-05-10T07:40:25;1.90;;;1.27;;
65463;SDS011;52063;45.110;9.870;2023-05-10T07:42:50;1.80;;;1.27;;
65463;SDS011;52063;45.110;9.870;2023-05-10T07:45:16;1.27;;;1.17;;
65463;SDS011;52063;45.110;9.870;2023-05-10T07:47:41;2.08;;;1.25;;
65463;SDS011;52063;45.110;9.870;2023-05-10T07:50:07;2.07;;;1.40;;
65463;SDS011;52063;45.110;9.870;2023-05-10T07:52:33;2.53;;;1.25;;
65463;SDS011;52063;45.110;9.870;2023-05-10T07:54:58;1.43;;;1.33;;
65463;SDS011;52063;45.110;9.870;2023-05-10T07:57:23;1.50;;;1.20;;
65463;SDS011;52063;45.110;9.870;2023-05-10T07:59:49;3.53;;;1.27;;
65463;SDS011;52063;45.110;9.870;2023-05-10T08:02:14;2.88;;;1.30;;
65463;SDS011;52063;45.110;9.870;2023-05-10T08:04:40;1.63;;;1.40;;
65463;SDS011;52063;45.110;9.870;2023-05-10T08:07:06;2.20;;;1.38;;
65463;SDS011;52063;45.110;9.870;2023-05-10T08:09:31;1.80;;;1.20;;
65463;SDS011;52063;45.110;9.870;2023-05-10T08:11:57;3.30;;;1.80;;
65463;SDS011;52063;45.110;9.870;2023-05-10T08:14:24;3.13;;;1.08;;
65463;SDS011;52063;45.110;9.870;2023-05-10T08:16:49;2.97;;;1.30;;
65463;SDS011;52063;45.110;9.870;2023-05-10T08:19:15;1.20;;;1.10;;
65463;SDS011;52063;45.110;9.870;2023-05-10T08:21:44;2.08;;;1.25;;
65463;SDS011;52063;45.110;9.870;2023-05-10T08:24:10;2.23;;;1.40;;
65463;SDS011;52063;45.110;9.870;2023-05-10T08:26:35;1.38;;;1.15;;
65463;SDS011;52063;45.110;9.870;2023-05-10T08:29:00;1.27;;;1.10;;
65463;SDS011;52063;45.110;9.870;2023-05-10T08:31:26;0.93;;;0.80;;
65463;SDS011;52063;45.110;9.870;2023-05-10T08:33:51;1.67;;;1.10;;
65463;SDS011;52063;45.110;9.870;2023-05-10T08:36:17;1.55;;;1.23;;
65463;SDS011;52063;45.110;9.870;2023-05-10T08:38:55;1.20;;;1.00;;
65463;SDS011;52063;45.110;9.870;2023-05-10T08:41:21;1.40;;;1.15;;
65463;SDS011;52063;45.110;9.870;2023-05-10T08:43:49;2.75;;;1.00;;
65463;SDS011;52063;45.110;9.870;2023-05-10T08:46:16;1.20;;;1.10;;
65463;SDS011;52063;45.110;9.870;2023-05-10T08:48:48;1.50;;;1.10;;
65463;SDS011;52063;45.110;9.870;2023-05-10T08:51:17;1.40;;;1.20;;
65463;SDS011;52063;45.110;9.870;2023-05-10T08:53:43;1.70;;;1.10;;
65463;SDS011;52063;45.110;9.870;2023-05-10T08:56:09;1.45;;;1.27;;
65463;SDS011;52063;45.110;9.870;2023-05-10T08:58:35;1.20;;;1.10;;
65463;SDS011;52063;45.110;9.870;2023-05-10T09:01:01;1.27;;;1.00;;
65463;SDS011;52063;45.110;9.870;2023-05-10T09:03:27;1.23;;;1.08;;
65463;SDS011;52063;45.110;9.870;2023-05-10T09:05:53;1.30;;;1.20;;
65463;SDS011;52063;45.110;9.870;2023-05-10T09:08:21;1.75;;;1.08;;
65463;SDS011;52063;45.110;9.870;2023-05-10T09:10:50;1.20;;;1.05;;
65463;SDS011;52063;45.110;9.870;2023-05-10T09:13:16;1.67;;;1.10;;
65463;SDS011;52063;45.110;9.870;2023-05-10T09:15:43;1.95;;;1.10;;
65463;SDS011;52063;45.110;9.870;2023-05-10T09:18:09;1.70;;;1.20;;
65463;SDS011;52063;45.110;9.870;2023-05-10T09:20:34;1.30;;;1.20;;
65463;SDS011;52063;45.110;9.870;2023-05-10T09:23:00;2.42;;;1.23;;
65463;SDS011;52063;45.110;9.870;2023-05-10T09:25:25;1.30;;;1.17;;
65463;SDS011;52063;45.110;9.870;2023-05-10T09:27:51;2.27;;;1.20;;
65463;SDS011;52063;45.110;9.870;2023-05-10T09:30:23;1.40;;;1.27;;
65463;SDS011;52063;45.110;9.870;2023-05-10T09:32:50;1.95;;;1.10;;
65463;SDS011;52063;45.110;9.870;2023-05-10T09:35:17;1.70;;;1.20;;
65463;SDS011;52063;45.110;9.870;2023-05-10T09:37:44;1.20;;;1.10;;
65463;SDS011;52063;45.110;9.870;2023-05-10T09:40:12;1.42;;;1.10;;
65463;SDS011;52063;45.110;9.870;2023-05-10T09:42:50;2.40;;;1.05;;
65463;SDS011;52063;45.110;9.870;2023-05-10T09:45:20;1.70;;;1.00;;
65463;SDS011;52063;45.110;9.870;2023-05-10T09:47:47;1.97;;;1.00;;
65463;SDS011;52063;45.110;9.870;2023-05-10T09:50:13;2.03;;;1.45;;
65463;SDS011;52063;45.110;9.870;2023-05-10T09:53:00;2.17;;;1.10;;
65463;SDS011;52063;45.110;9.870;2023-05-10T09:58:02;1.55;;;1.10;;
65463;SDS011;52063;45.110;9.870;2023-05-10T10:00:34;1.67;;;1.10;;
65463;SDS011;52063;45.110;9.870;2023-05-10T10:03:00;1.77;;;1.20;;
65463;SDS011;52063;45.110;9.870;2023-05-10T10:05:29;2.58;;;0.95;;
65463;SDS011;52063;45.110;9.870;2023-05-10T10:07:59;1.52;;;1.20;;
65463;SDS011;52063;45.110;9.870;2023-05-10T10:10:26;1.58;;;1.20;;
65463;SDS011;52063;45.110;9.870;2023-05-10T10:12:52;1.23;;;1.02;;
65463;SDS011;52063;45.110;9.870;2023-05-10T10:15:17;1.60;;;1.30;;
65463;SDS011;52063;45.110;9.870;2023-05-10T10:17:44;1.55;;;1.10;;
65463;SDS011;52063;45.110;9.870;2023-05-10T10:20:09;1.70;;;1.23;;
65463;SDS011;52063;45.110;9.870;2023-05-10T10:22:36;1.50;;;1.20;;
65463;SDS011;52063;45.110;9.870;2023-05-10T10:25:02;1.60;;;1.17;;
65463;SDS011;52063;45.110;9.870;2023-05-10T10:27:31;1.95;;;1.30;;
65463;SDS011;52063;45.110;9.870;2023-05-10T10:30:11;1.20;;;1.10;;
65463;SDS011;52063;45.110;9.870;2023-05-10T10:32:50;1.60;;;1.13;;
65463;SDS011;52063;45.110;9.870;2023-05-10T10:35:20;1.40;;;0.93;;
65463;SDS011;52063;45.110;9.870;2023-05-10T10:37:47;2.60;;;1.17;;
65463;SDS011;52063;45.110;9.870;2023-05-10T10:40:22;1.98;;;1.00;;
65463;SDS011;52063;45.110;9.870;2023-05-10T10:42:52;1.42;;;1.05;;
65463;SDS011;52063;45.110;9.870;2023-05-10T10:45:18;4.50;;;1.30;;
65463;SDS011;52063;45.110;9.870;2023-05-10T10:47:45;1.13;;;0.85;;
65463;SDS011;52063;45.110;9.870;2023-05-10T10:50:10;1.33;;;1.10;;
65463;SDS011;52063;45.110;9.870;2023-05-10T10:52:41;1.33;;;0.90;;
65463;SDS011;52063;45.110;9.870;2023-05-10T10:55:08;1.20;;;0.97;;
65463;SDS011;52063;45.110;9.870;2023-05-10T11:02:54;1.25;;;1.15;;
65463;SDS011;52063;45.110;9.870;2023-05-10T11:05:41;1.42;;;1.13;;
65463;SDS011;52063;45.110;9.870;2023-05-10T11:10:52;1.08;;;0.88;;
65463;SDS011;52063;45.110;9.870;2023-05-10T11:13:30;1.13;;;0.85;;
65463;SDS011;52063;45.110;9.870;2023-05-10T11:19:05;1.23;;;1.00;;
65463;SDS011;52063;45.110;9.870;2023-05-10T11:21:33;1.30;;;0.90;;
65463;SDS011;52063;45.110;9.870;2023-05-10T11:23:59;1.92;;;0.88;;
65463;SDS011;52063;45.110;9.870;2023-05-10T11:26:32;1.65;;;1.15;;
65463;SDS011;52063;45.110;9.870;2023-05-10T11:28:59;1.13;;;1.02;;
65463;SDS011;52063;45.110;9.870;2023-05-10T11:31:27;1.40;;;1.10;;
65463;SDS011;52063;45.110;9.870;2023-05-10T11:33:53;1.20;;;0.93;;
65463;SDS011;52063;45.110;9.870;2023-05-10T11:36:35;1.40;;;1.10;;
65463;SDS011;52063;45.110;9.870;2023-05-10T11:39:00;1.48;;;1.10;;
65463;SDS011;52063;45.110;9.870;2023-05-10T11:41:27;1.10;;;1.00;;
65463;SDS011;52063;45.110;9.870;2023-05-10T11:43:54;1.00;;;0.90;;
65463;SDS011;52063;45.110;9.870;2023-05-10T11:46:20;1.23;;;1.10;;
65463;SDS011;52063;45.110;9.870;2023-05-10T11:48:49;1.55;;;1.23;;
65463;SDS011;52063;45.110;9.870;2023-05-10T11:51:19;1.38;;;1.10;;
65463;SDS011;52063;45.110;9.870;2023-05-10T11:53:49;1.67;;;1.10;;
65463;SDS011;52063;45.110;9.870;2023-05-10T11:56:15;1.60;;;1.10;;
65463;SDS011;52063;45.110;9.870;2023-05-10T11:58:40;1.88;;;1.25;;
65463;SDS011;52063;45.110;9.870;2023-05-10T12:01:07;1.50;;;0.80;;
65463;SDS011;52063;45.110;9.870;2023-05-10T12:03:33;1.65;;;1.20;;
65463;SDS011;52063;45.110;9.870;2023-05-10T12:05:59;1.40;;;0.97;;
65463;SDS011;52063;45.110;9.870;2023-05-10T12:08:26;1.50;;;1.30;;
65463;SDS011;52063;45.110;9.870;2023-05-10T12:10:53;1.10;;;1.00;;
65463;SDS011;52063;45.110;9.870;2023-05-10T12:13:28;2.28;;;1.10;;
65463;SDS011;52063;45.110;9.870;2023-05-10T12:15:53;1.83;;;1.13;;
65463;SDS011;52063;45.110;9.870;2023-05-10T12:18:22;1.08;;;0.88;;
65463;SDS011;52063;45.110;9.870;2023-05-10T12:20:51;1.20;;;0.85;;
65463;SDS011;52063;45.110;9.870;2023-05-10T12:23:17;1.63;;;0.80;;
65463;SDS011;52063;45.110;9.870;2023-05-10T12:25:44;1.25;;;1.00;;
65463;SDS011;52063;45.110;9.870;2023-05-10T12:28:10;1.30;;;1.20;;
65463;SDS011;52063;45.110;9.870;2023-05-10T12:30:36;1.20;;;1.10;;
65463;SDS011;52063;45.110;9.870;2023-05-10T12:33:09;1.42;;;1.10;;
65463;SDS011;52063;45.110;9.870;2023-05-10T12:35:43;1.35;;;1.25;;
65463;SDS011;52063;45.110;9.870;2023-05-10T12:41:02;1.73;;;1.00;;
65463;SDS011;52063;45.110;9.870;2023-05-10T12:43:32;1.30;;;0.90;;
65463;SDS011;52063;45.110;9.870;2023-05-10T12:45:58;2.17;;;1.15;;
65463;SDS011;52063;45.110;9.870;2023-05-10T12:48:24;1.58;;;0.90;;
65463;SDS011;52063;45.110;9.870;2023-05-10T12:50:50;1.20;;;1.10;;
65463;SDS011;52063;45.110;9.870;2023-05-10T12:53:15;1.58;;;1.30;;
65463;SDS011;52063;45.110;9.870;2023-05-10T12:55:41;1.43;;;1.30;;
65463;SDS011;52063;45.110;9.870;2023-05-10T12:58:07;1.23;;;1.10;;
65463;SDS011;52063;45.110;9.870;2023-05-10T13:00:33;1.20;;;1.00;;
65463;SDS011;52063;45.110;9.870;2023-05-10T13:02:58;1.55;;;1.25;;
65463;SDS011;52063;45.110;9.870;2023-05-10T13:05:24;1.20;;;0.97;;
65463;SDS011;52063;45.110;9.870;2023-05-10T13:07:50;1.88;;;1.15;;
65463;SDS011;52063;45.110;9.870;2023-05-10T13:10:15;2.40;;;1.20;;
65463;SDS011;52063;45.110;9.870;2023-05-10T13:12:41;1.08;;;0.80;;
65463;SDS011;52063;45.110;9.870;2023-05-10T13:15:07;2.63;;;1.17;;
65463;SDS011;52063;45.110;9.870;2023-05-10T13:17:32;1.23;;;1.00;;
65463;SDS011;52063;45.110;9.870;2023-05-10T13:19:58;1.23;;;1.03;;
65463;SDS011;52063;45.110;9.870;2023-05-10T13:22:23;1.10;;;1.00;;
65463;SDS011;52063;45.110;9.870;2023-05-10T13:24:49;1.55;;;1.15;;
65463;SDS011;52063;45.110;9.870;2023-05-10T13:27:14;1.33;;;1.23;;
65463;SDS011;52063;45.110;9.870;2023-05-10T13:29:40;1.15;;;1.05;;
65463;SDS011;52063;45.110;9.870;2023-05-10T13:32:05;1.07;;;0.97;;
65463;SDS011;52063;45.110;9.870;2023-05-10T13:34:31;1.47;;;1.37;;
65463;SDS011;52063;45.110;9.870;2023-05-10T13:36:57;1.42;;;1.20;;
65463;SDS011;52063;45.110;9.870;2023-05-10T13:39:22;1.10;;;1.00;;
65463;SDS011;52063;45.110;9.870;2023-05-10T13:41:48;1.40;;;1.20;;
65463;SDS011;52063;45.110;9.870;2023-05-10T13:44:13;1.30;;;1.20;;
65463;SDS011;52063;45.110;9.870;2023-05-10T13:46:42;1.85;;;1.15;;
65463;SDS011;52063;45.110;9.870;2023-05-10T13:49:08;1.53;;;1.13;;
65463;SDS011;52063;45.110;9.870;2023-05-10T13:51:34;1.20;;;0.90;;
65463;SDS011;52063;45.110;9.870;2023-05-10T13:54:00;1.20;;;1.02;;
65463;SDS011;52063;45.110;9.870;2023-05-10T13:56:29;1.20;;;1.10;;
65463;SDS011;52063;45.110;9.870;2023-05-10T13:58:55;1.67;;;1.10;;
65463;SDS011;52063;45.110;9.870;2023-05-10T14:01:22;1.40;;;1.02;;
65463;SDS011;52063;45.110;9.870;2023-05-10T14:03:47;1.30;;;1.10;;
65463;SDS011;52063;45.110;9.870;2023-05-10T14:06:13;1.10;;;0.80;;
65463;SDS011;52063;45.110;9.870;2023-05-10T14:08:38;1.23;;;0.93;;
65463;SDS011;52063;45.110;9.870;2023-05-10T14:11:04;1.53;;;1.10;;
65463;SDS011;52063;45.110;9.870;2023-05-10T14:13:29;1.50;;;1.23;;
65463;SDS011;52063;45.110;9.870;2023-05-10T14:15:55;1.50;;;1.10;;
65463;SDS011;52063;45.110;9.870;2023-05-10T14:18:20;1.20;;;1.10;;
65463;SDS011;52063;45.110;9.870;2023-05-10T14:20:46;1.37;;;1.00;;
65463;SDS011;52063;45.110;9.870;2023-05-10T14:23:11;1.30;;;1.00;;
65463;SDS011;52063;45.110;9.870;2023-05-10T14:25:39;1.63;;;0.98;;
65463;SDS011;52063;45.110;9.870;2023-05-10T14:28:05;1.00;;;0.90;;
65463;SDS011;52063;45.110;9.870;2023-05-10T14:30:31;1.05;;;0.95;;
65463;SDS011;52063;45.110;9.870;2023-05-10T14:32:57;1.10;;;1.00;;
65463;SDS011;52063;45.110;9.870;2023-05-10T14:35:23;1.53;;;1.27;;
65463;SDS011;52063;45.110;9.870;2023-05-10T14:37:49;1.70;;;1.00;;
65463;SDS011;52063;45.110;9.870;2023-05-10T14:40:14;1.67;;;1.47;;
65463;SDS011;52063;45.110;9.870;2023-05-10T14:42:40;3.20;;;1.30;;
65463;SDS011;52063;45.110;9.870;2023-05-10T14:45:07;2.33;;;1.40;;
65463;SDS011;52063;45.110;9.870;2023-05-10T14:47:33;1.13;;;1.00;;
65463;SDS011;52063;45.110;9.870;2023-05-10T14:49:59;1.10;;;1.00;;
65463;SDS011;52063;45.110;9.870;2023-05-10T14:52:25;1.20;;;1.00;;
65463;SDS011;52063;45.110;9.870;2023-05-10T14:54:50;1.08;;;0.95;;
65463;SDS011;52063;45.110;9.870;2023-05-10T14:57:16;1.10;;;0.77;;
65463;SDS011;52063;45.110;9.870;2023-05-10T14:59:41;1.20;;;1.00;;
65463;SDS011;52063;45.110;9.870;2023-05-10T15:02:07;1.63;;;0.90;;
65463;SDS011;52063;45.110;9.870;2023-05-10T15:04:33;1.23;;;1.00;;
65463;SDS011;52063;45.110;9.870;2023-05-10T15:06:58;1.25;;;1.10;;
65463;SDS011;52063;45.110;9.870;2023-05-10T15:09:24;1.50;;;0.83;;
65463;SDS011;52063;45.110;9.870;2023-05-10T15:11:50;1.50;;;1.13;;
65463;SDS011;52063;45.110;9.870;2023-05-10T15:14:15;2.03;;;1.10;;
65463;SDS011;52063;45.110;9.870;2023-05-10T15:16:41;1.97;;;1.13;;
65463;SDS011;52063;45.110;9.870;2023-05-10T15:19:06;1.23;;;1.10;;